Tecumseh, Indiana
Current Conditions -  °F | °C
As of 2:53 AM on Friday 19 Dec 2014 (Local Time) from KHUF Reporting Station
Overcast Overcast  
Wind Chill: 28°   Ceiling: 1600
Heat Index: 28°   Visibility: 9mi
Dew Point: 23°   Wind: 0mph
Humidity: 81%   Direction: NA
Pressure: 30.29"   Gusts: NA
Location:  39.5107°N, 87.4772°W
Report Text: KHUF 190753Z 00000KT 9SM OVC016 M02/M05 A3029 RMK AO2 SLP264 T10221050
Loading
Personal Weather Stations






























Interactive Weather Map New forecast layout! Learn more

10-Day Weather Forecast

Advertisements
Track Severe Weather on mobile